Time;durP1;ratioP1;P1;durP2;ratioP2;P2;SDS_P1;SDS_P2;PMS_P1;PMS_P2;Temp;Humidity;BMP_temperature;BMP_pressure;BME280_temperature;BME280_humidity;BME280_pressure;Samples;Min_cycle;Max_cycle;Signal;HPM_P1;HPM_P2
2023/01/13 00:01:18;;;;;;;1.47;0.70;;;10.70;99.90;;;;;;5017852;28;20421;-76
2023/01/13 00:03:44;;;;;;;1.57;0.80;;;10.70;99.90;;;;;;5019549;28;20409;-78
2023/01/13 00:06:16;;;;;;;0.73;0.60;;;10.70;99.90;;;;;;5016974;28;20468;-76
2023/01/13 00:08:41;;;;;;;0.87;0.60;;;10.80;99.90;;;;;;5013560;28;20182;-75
2023/01/13 00:11:08;;;;;;;0.50;0.40;;;10.70;99.90;;;;;;4999534;28;20930;-78
2023/01/13 00:13:34;;;;;;;1.37;0.70;;;10.70;99.90;;;;;;5018312;28;20575;-78
2023/01/13 00:16:03;;;;;;;0.70;0.70;;;10.70;99.90;;;;;;4995608;28;20516;-75
2023/01/13 00:18:29;;;;;;;1.40;0.90;;;10.70;99.90;;;;;;4996323;28;20175;-78
2023/01/13 00:20:59;;;;;;;2.70;0.53;;;10.70;99.90;;;;;;5013390;28;20925;-78
2023/01/13 00:23:27;;;;;;;1.33;0.70;;;10.60;99.90;;;;;;5013492;28;20382;-78
2023/01/13 00:26:05;;;;;;;0.67;0.50;;;10.60;99.90;;;;;;5021717;28;20414;-78
2023/01/13 00:28:31;;;;;;;0.60;0.50;;;10.60;99.90;;;;;;4995391;28;20939;-78
2023/01/13 00:31:13;;;;;;;0.70;0.60;;;10.60;99.90;;;;;;4995191;28;20421;-78
2023/01/13 00:33:40;;;;;;;2.90;0.70;;;10.60;99.90;;;;;;4992610;28;20588;-78
2023/01/13 00:36:08;;;;;;;0.80;0.50;;;10.50;99.90;;;;;;4988887;28;20784;-78
2023/01/13 00:38:35;;;;;;;1.03;0.97;;;10.50;99.90;;;;;;4994788;28;20426;-78
2023/01/13 00:41:06;;;;;;;1.10;0.70;;;10.50;99.90;;;;;;5013178;28;20416;-76
2023/01/13 00:43:33;;;;;;;6.63;1.20;;;10.40;99.90;;;;;;5027309;28;20455;-78
2023/01/13 00:46:00;;;;;;;1.93;0.80;;;10.50;99.90;;;;;;5017191;28;20410;-78
2023/01/13 00:48:27;;;;;;;3.50;0.80;;;10.60;99.90;;;;;;4995333;28;20418;-77
2023/01/13 00:51:00;;;;;;;0.97;0.60;;;10.50;99.90;;;;;;5014229;28;20426;-78
2023/01/13 00:53:27;;;;;;;0.60;0.60;;;10.50;99.90;;;;;;5016873;28;20460;-78
2023/01/13 00:55:59;;;;;;;1.87;0.80;;;10.50;99.90;;;;;;5016342;28;20410;-78
2023/01/13 00:58:25;;;;;;;1.17;0.70;;;10.50;99.90;;;;;;4998371;28;20414;-77
2023/01/13 01:00:51;;;;;;;1.20;0.87;;;10.50;99.90;;;;;;5016742;28;20823;-77
2023/01/13 01:03:17;;;;;;;1.67;1.17;;;10.50;99.90;;;;;;5017191;28;20569;-78
2023/01/13 01:05:42;;;;;;;5.43;2.30;;;10.50;99.90;;;;;;4998708;28;20258;-78
2023/01/13 01:08:08;;;;;;;8.83;1.57;;;10.50;99.90;;;;;;5016553;28;20261;-78
2023/01/13 01:10:33;;;;;;;4.07;1.33;;;10.40;99.90;;;;;;5016481;28;20185;-77
2023/01/13 01:12:59;;;;;;;3.80;0.97;;;10.40;99.90;;;;;;5016251;28;20495;-78
2023/01/13 01:15:25;;;;;;;2.90;1.07;;;10.40;99.90;;;;;;5015974;28;20182;-77
2023/01/13 01:17:51;;;;;;;3.80;1.17;;;10.40;99.90;;;;;;4998910;28;20176;-78
2023/01/13 01:20:17;;;;;;;7.67;2.07;;;10.40;99.90;;;;;;5016065;28;20418;-78
2023/01/13 01:22:42;;;;;;;2.93;1.10;;;10.40;99.90;;;;;;4999234;28;20198;-78
2023/01/13 01:25:08;;;;;;;5.33;1.13;;;10.40;99.90;;;;;;5015672;28;20782;-77
2023/01/13 01:27:34;;;;;;;3.73;1.43;;;10.40;99.90;;;;;;4998478;28;20636;-77
2023/01/13 01:29:59;;;;;;;5.10;1.23;;;10.40;99.90;;;;;;4998707;28;20183;-78
2023/01/13 01:32:25;;;;;;;2.63;1.40;;;10.30;99.90;;;;;;5016031;28;20691;-78
2023/01/13 01:34:51;;;;;;;5.53;1.43;;;10.30;99.90;;;;;;5015473;28;20211;-77
2023/01/13 01:37:16;;;;;;;3.27;1.20;;;10.30;99.90;;;;;;4995628;28;20247;-78
2023/01/13 01:39:42;;;;;;;4.00;1.30;;;10.30;99.90;;;;;;4979322;28;20173;-78
2023/01/13 01:45:30;;;;;;;2.77;1.10;;;10.30;99.90;;;;;;4979453;28;20183;-78
2023/01/13 01:48:00;;;;;;;4.70;1.50;;;10.30;99.90;;;;;;4976088;28;20427;-78
2023/01/13 01:50:27;;;;;;;6.63;1.60;;;10.30;99.90;;;;;;4963277;28;20431;-77
2023/01/13 01:53:04;;;;;;;6.90;1.33;;;10.30;99.90;;;;;;4979517;28;20529;-76
2023/01/13 01:55:33;;;;;;;7.10;1.37;;;10.30;99.90;;;;;;5002434;28;20415;-75
2023/01/13 01:58:19;;;;;;;5.07;1.40;;;10.30;99.90;;;;;;5001215;28;20429;-75
2023/01/13 02:00:45;;;;;;;8.60;1.80;;;10.30;99.90;;;;;;4999232;28;20510;-78
2023/01/13 02:03:11;;;;;;;4.87;1.60;;;10.30;99.90;;;;;;4993088;28;20466;-77
2023/01/13 02:05:38;;;;;;;6.90;2.20;;;10.20;99.90;;;;;;4994383;28;20474;-77
2023/01/13 02:08:05;;;;;;;8.47;2.27;;;10.20;99.90;;;;;;5013265;28;20500;-76
2023/01/13 02:10:31;;;;;;;3.90;1.73;;;10.20;99.90;;;;;;5013212;28;20414;-77
2023/01/13 02:13:01;;;;;;;6.13;1.60;;;10.20;99.90;;;;;;5013335;28;20497;-77
2023/01/13 02:15:34;;;;;;;6.00;2.07;;;10.20;99.90;;;;;;4996066;28;20414;-77
2023/01/13 02:18:00;;;;;;;5.57;1.77;;;10.20;99.90;;;;;;4995416;28;20414;-78
2023/01/13 02:20:56;;;;;;;6.43;1.40;;;10.30;99.90;;;;;;4995809;28;21098;-77
2023/01/13 02:26:25;;;;;;;4.70;1.20;;;10.20;99.90;;;;;;4995673;28;20903;-78
2023/01/13 02:32:47;;;;;;;4.30;1.37;;;10.20;99.90;;;;;;5013702;28;20469;-77
2023/01/13 02:35:40;;;;;;;6.13;1.37;;;10.10;99.90;;;;;;4991286;28;20431;-78
2023/01/13 02:38:09;;;;;;;4.50;1.40;;;10.20;99.90;;;;;;4993272;28;20423;-78
2023/01/13 02:40:35;;;;;;;5.93;1.77;;;10.20;99.90;;;;;;4993929;28;20415;-76
2023/01/13 02:46:31;;;;;;;7.33;1.27;;;10.30;99.90;;;;;;4993717;28;20259;-78
2023/01/13 02:49:03;;;;;;;4.63;1.30;;;10.30;99.90;;;;;;4993198;28;20422;-78
2023/01/13 02:51:30;;;;;;;3.30;1.30;;;10.10;99.90;;;;;;4993471;28;20999;-78
2023/01/13 02:53:59;;;;;;;7.77;2.03;;;10.10;99.90;;;;;;4994195;28;20421;-77
2023/01/13 02:56:26;;;;;;;5.03;0.90;;;10.00;99.90;;;;;;4976390;28;20423;-76
2023/01/13 02:58:56;;;;;;;2.67;1.20;;;10.10;99.90;;;;;;4993923;28;20485;-76
2023/01/13 03:01:22;;;;;;;3.67;1.07;;;10.00;99.90;;;;;;4993682;28;20416;-78
2023/01/13 03:03:48;;;;;;;5.17;1.77;;;10.00;99.90;;;;;;4976823;28;20908;-78
2023/01/13 03:07:11;;;;;;;6.77;1.73;;;10.10;99.90;;;;;;4999992;28;20505;-77
2023/01/13 03:09:48;;;;;;;7.73;0.90;;;9.80;99.90;;;;;;4898885;29;20455;-78
2023/01/13 03:12:48;;;;;;;3.93;1.30;;;9.80;99.90;;;;;;4898977;29;20474;-76
2023/01/13 03:15:17;;;;;;;4.30;1.13;;;9.80;99.90;;;;;;4988674;28;20517;-76
2023/01/13 03:18:01;;;;;;;3.73;0.90;;;9.70;99.90;;;;;;5013208;28;20414;-78
2023/01/13 03:20:33;;;;;;;4.60;0.93;;;9.60;99.90;;;;;;4995950;28;20472;-77
2023/01/13 03:23:01;;;;;;;2.63;0.90;;;9.60;99.90;;;;;;5013655;28;20448;-78
2023/01/13 03:25:34;;;;;;;4.57;1.23;;;9.60;99.90;;;;;;5013054;28;20414;-78
2023/01/13 03:28:07;;;;;;;5.30;2.70;;;9.60;99.90;;;;;;5012673;28;20441;-78
2023/01/13 03:30:37;;;;;;;3.73;1.20;;;9.20;99.90;;;;;;5012869;28;20421;-77
2023/01/13 03:33:37;;;;;;;3.43;1.40;;;9.50;99.90;;;;;;5012778;28;20555;-77
2023/01/13 03:36:09;;;;;;;4.37;1.13;;;9.50;99.90;;;;;;5002103;28;20990;-78
2023/01/13 03:38:41;;;;;;;4.80;1.00;;;9.50;99.90;;;;;;4993053;28;20498;-77
2023/01/13 03:41:27;;;;;;;7.00;1.20;;;9.50;99.90;;;;;;4976286;28;20505;-77
2023/01/13 03:44:22;;;;;;;6.80;1.60;;;9.40;99.90;;;;;;4993080;28;20442;-78
2023/01/13 03:47:06;;;;;;;6.60;1.90;;;9.50;99.90;;;;;;4975798;28;20427;-78
2023/01/13 03:49:52;;;;;;;3.77;1.30;;;9.60;99.90;;;;;;4975999;28;20419;-78
2023/01/13 03:52:24;;;;;;;6.93;1.30;;;9.40;99.90;;;;;;4975566;28;20509;-78
2023/01/13 03:55:11;;;;;;;8.33;1.20;;;9.30;99.90;;;;;;4993486;28;20473;-77
2023/01/13 03:57:45;;;;;;;5.73;1.20;;;9.40;99.90;;;;;;4992549;28;20423;-78
2023/01/13 04:00:13;;;;;;;3.93;1.10;;;9.20;99.90;;;;;;4993235;28;20426;-78
2023/01/13 04:02:50;;;;;;;3.13;1.00;;;9.30;99.90;;;;;;4975856;28;20435;-78
2023/01/13 04:05:16;;;;;;;6.90;1.70;;;9.20;99.90;;;;;;4993754;28;20925;-77
2023/01/13 04:08:29;;;;;;;5.93;1.93;;;9.20;99.90;;;;;;4994886;28;20426;-78
2023/01/13 04:11:05;;;;;;;4.50;1.40;;;9.20;99.90;;;;;;4915556;29;20434;-77
2023/01/13 04:13:36;;;;;;;2.07;1.00;;;9.20;99.90;;;;;;4908996;29;20506;-78
2023/01/13 04:16:06;;;;;;;9.77;1.20;;;9.30;99.90;;;;;;4970439;28;20425;-77
2023/01/13 04:18:32;;;;;;;6.23;1.67;;;9.20;99.90;;;;;;5012972;28;20440;-77
2023/01/13 04:21:00;;;;;;;4.10;1.20;;;9.10;99.90;;;;;;4996415;28;20870;-77
2023/01/13 04:23:27;;;;;;;6.17;1.67;;;9.00;99.90;;;;;;4996195;28;20253;-78
2023/01/13 04:25:53;;;;;;;6.33;1.30;;;9.20;99.90;;;;;;4995178;28;20418;-77
2023/01/13 04:28:19;;;;;;;3.80;0.90;;;9.00;99.90;;;;;;5013534;28;20421;-77
2023/01/13 04:30:45;;;;;;;6.43;1.30;;;9.00;99.90;;;;;;5013194;28;21118;-78
2023/01/13 04:33:11;;;;;;;4.27;1.30;;;9.00;99.90;;;;;;5012011;28;20457;-78
2023/01/13 04:35:37;;;;;;;6.00;1.53;;;9.00;99.90;;;;;;5009801;28;20414;-78
2023/01/13 04:38:06;;;;;;;6.97;1.60;;;9.00;99.90;;;;;;5009264;28;20418;-78
2023/01/13 04:40:32;;;;;;;5.67;1.30;;;9.00;99.90;;;;;;4991585;28;20163;-78
2023/01/13 04:42:57;;;;;;;8.53;1.43;;;9.30;99.90;;;;;;4991532;28;20799;-78
2023/01/13 04:45:23;;;;;;;3.73;1.30;;;9.20;99.90;;;;;;5009105;28;20179;-78
2023/01/13 04:47:49;;;;;;;7.00;2.07;;;9.20;99.90;;;;;;5009344;28;20183;-78
2023/01/13 04:50:18;;;;;;;6.53;2.13;;;9.00;99.90;;;;;;5008959;28;20179;-78
2023/01/13 04:52:45;;;;;;;4.83;1.67;;;9.00;99.90;;;;;;5009062;28;20233;-78
2023/01/13 04:55:12;;;;;;;7.30;2.00;;;9.10;99.90;;;;;;5009044;28;21127;-78
2023/01/13 04:57:37;;;;;;;4.13;1.50;;;9.00;99.90;;;;;;5008912;28;20446;-78
2023/01/13 05:00:07;;;;;;;8.80;1.87;;;8.90;99.90;;;;;;5008822;28;20499;-78
2023/01/13 05:02:33;;;;;;;7.40;1.60;;;9.00;99.90;;;;;;5008978;28;20206;-78
2023/01/13 05:04:59;;;;;;;5.20;1.57;;;9.00;99.90;;;;;;5008936;28;20410;-78
2023/01/13 05:07:25;;;;;;;4.73;1.60;;;9.00;99.90;;;;;;4993288;28;20460;-78
2023/01/13 05:09:50;;;;;;;7.70;2.07;;;9.00;99.90;;;;;;4989298;28;20411;-77
2023/01/13 05:17:45;;;;;;;6.30;2.33;;;9.10;99.90;;;;;;4983191;28;20502;-79
2023/01/13 05:20:11;;;;;;;5.03;2.30;;;9.00;99.90;;;;;;4989279;28;20502;-78
2023/01/13 05:25:21;;;;;;;9.97;3.00;;;9.00;99.90;;;;;;4989473;28;20411;-78
2023/01/13 05:27:58;;;;;;;5.43;2.23;;;9.10;99.90;;;;;;4983512;28;20840;-78
2023/01/13 05:30:34;;;;;;;6.20;1.90;;;9.10;99.90;;;;;;4987881;28;20425;-78
2023/01/13 05:33:00;;;;;;;5.57;1.97;;;9.00;99.90;;;;;;4987694;28;20561;-78
2023/01/13 05:35:27;;;;;;;7.80;2.13;;;9.00;99.90;;;;;;4994549;28;20505;-79
2023/01/13 05:37:54;;;;;;;6.87;1.67;;;9.00;99.90;;;;;;5009939;28;20175;-78
2023/01/13 05:43:21;;;;;;;8.73;1.73;;;9.10;99.90;;;;;;5012364;28;20437;-78
2023/01/13 05:45:46;;;;;;;5.50;1.97;;;9.00;99.90;;;;;;5012001;28;20422;-78
2023/01/13 05:48:12;;;;;;;5.03;1.33;;;9.00;99.90;;;;;;5011848;28;20814;-78
2023/01/13 05:50:38;;;;;;;7.67;1.57;;;9.10;99.90;;;;;;4994223;28;20187;-76
2023/01/13 05:53:04;;;;;;;5.47;1.73;;;9.10;99.90;;;;;;5014205;28;20904;-78
2023/01/13 05:55:30;;;;;;;4.30;1.37;;;9.30;99.90;;;;;;5006752;28;20460;-78
2023/01/13 05:57:56;;;;;;;3.37;1.43;;;9.10;99.90;;;;;;5028960;28;20751;-77
2023/01/13 06:00:22;;;;;;;8.60;2.20;;;9.10;99.90;;;;;;5030586;28;20210;-78
2023/01/13 06:02:48;;;;;;;9.43;2.10;;;9.00;99.90;;;;;;5000050;28;20211;-78
2023/01/13 06:05:14;;;;;;;7.60;2.03;;;9.00;99.90;;;;;;5003841;28;20426;-78
2023/01/13 06:07:39;;;;;;;7.97;1.97;;;9.00;99.90;;;;;;4994592;28;20698;-78
2023/01/13 06:10:06;;;;;;;7.80;2.37;;;9.00;99.90;;;;;;5012149;28;20765;-78
2023/01/13 06:12:32;;;;;;;7.50;2.10;;;9.10;99.90;;;;;;5012065;28;20195;-78
2023/01/13 06:14:57;;;;;;;9.30;1.93;;;8.90;99.90;;;;;;5011951;28;20425;-78
2023/01/13 06:17:23;;;;;;;6.37;2.47;;;9.00;99.90;;;;;;5011764;28;20266;-77
2023/01/13 06:19:49;;;;;;;8.00;1.90;;;9.10;99.90;;;;;;5011835;28;20175;-78
2023/01/13 06:22:26;;;;;;;11.37;1.80;;;8.90;99.90;;;;;;4994644;28;20191;-78
2023/01/13 06:24:53;;;;;;;5.93;1.53;;;9.10;99.90;;;;;;5011929;28;20421;-78
2023/01/13 06:27:20;;;;;;;7.90;1.70;;;9.10;99.90;;;;;;4977853;28;20433;-77
2023/01/13 06:29:46;;;;;;;5.23;1.90;;;8.90;99.90;;;;;;4994151;28;20426;-78
2023/01/13 06:32:19;;;;;;;5.93;1.93;;;8.90;99.90;;;;;;5011818;28;20476;-78
2023/01/13 06:34:50;;;;;;;6.30;2.00;;;8.90;99.90;;;;;;4994196;28;20414;-78
2023/01/13 06:37:20;;;;;;;6.83;1.90;;;8.90;99.90;;;;;;4989990;28;20430;-79
2023/01/13 06:39:47;;;;;;;8.63;1.87;;;8.90;99.90;;;;;;5011419;28;20906;-77
2023/01/13 06:44:56;;;;;;;9.33;2.43;;;9.10;99.90;;;;;;5031328;28;20421;-78
2023/01/13 06:47:22;;;;;;;8.83;1.97;;;9.00;99.90;;;;;;5013351;28;20424;-77
2023/01/13 06:49:48;;;;;;;4.50;1.33;;;9.00;99.90;;;;;;5030834;28;20519;-78
2023/01/13 06:52:13;;;;;;;4.90;1.37;;;9.00;99.90;;;;;;5013663;28;20784;-78
2023/01/13 06:54:39;;;;;;;7.40;1.80;;;8.90;99.90;;;;;;5031225;28;20189;-78
2023/01/13 06:57:05;;;;;;;4.70;1.40;;;9.00;99.90;;;;;;5018659;28;20254;-79
2023/01/13 06:59:33;;;;;;;9.87;2.67;;;8.80;99.90;;;;;;4997544;28;20699;-79
2023/01/13 07:02:00;;;;;;;9.37;1.80;;;8.80;99.90;;;;;;4974334;28;20759;-78
2023/01/13 07:04:25;;;;;;;9.00;1.90;;;8.80;99.90;;;;;;4974181;28;20419;-78
2023/01/13 07:06:51;;;;;;;10.33;2.00;;;8.80;99.90;;;;;;4970532;28;20779;-75
2023/01/13 07:09:17;;;;;;;6.40;1.70;;;8.80;99.90;;;;;;4991104;28;20258;-79
2023/01/13 07:11:42;;;;;;;8.20;1.30;;;9.00;99.90;;;;;;4974031;28;20235;-77
2023/01/13 07:16:53;;;;;;;6.63;1.80;;;8.80;99.90;;;;;;5000853;28;20651;-78
2023/01/13 07:19:22;;;;;;;4.90;2.30;;;8.70;99.90;;;;;;5010907;28;20418;-78
2023/01/13 07:21:49;;;;;;;8.47;2.10;;;8.90;99.90;;;;;;5020118;28;20867;-79
2023/01/13 07:24:15;;;;;;;7.87;1.70;;;8.70;99.90;;;;;;4998667;28;20956;-78
2023/01/13 07:26:41;;;;;;;5.70;1.57;;;8.70;99.90;;;;;;5013116;28;20712;-78
2023/01/13 07:29:06;;;;;;;5.90;2.20;;;8.70;99.90;;;;;;5010011;28;20250;-78
2023/01/13 07:31:32;;;;;;;4.37;2.40;;;8.70;99.90;;;;;;4990630;28;20210;-78
2023/01/13 07:33:57;;;;;;;10.17;2.20;;;8.70;99.90;;;;;;4996398;28;20812;-78
2023/01/13 07:36:23;;;;;;;4.80;1.53;;;8.80;99.90;;;;;;5022298;28;20205;-79
2023/01/13 07:38:48;;;;;;;4.30;1.30;;;8.60;99.90;;;;;;4997832;28;20191;-77
2023/01/13 07:44:01;;;;;;;10.57;1.87;;;8.70;99.90;;;;;;5023954;28;20179;-78
2023/01/13 07:46:27;;;;;;;7.50;1.83;;;9.00;99.90;;;;;;5008818;28;20418;-78
2023/01/13 07:48:52;;;;;;;4.83;1.33;;;8.70;99.90;;;;;;4990237;28;20417;-78
2023/01/13 07:51:18;;;;;;;7.20;1.93;;;8.70;99.90;;;;;;4989116;28;20214;-78
2023/01/13 07:53:43;;;;;;;7.87;2.87;;;8.60;99.90;;;;;;4988115;28;20521;-78
2023/01/13 07:56:09;;;;;;;3.40;1.37;;;8.80;99.90;;;;;;4992760;28;20254;-78
2023/01/13 07:58:36;;;;;;;6.30;1.23;;;8.70;99.90;;;;;;5010238;28;20286;-79
2023/01/13 08:01:11;;;;;;;8.10;1.50;;;8.70;99.90;;;;;;4991272;28;20598;-78
2023/01/13 08:03:37;;;;;;;7.60;1.87;;;8.80;99.90;;;;;;5015533;28;20516;-78
2023/01/13 08:06:04;;;;;;;5.20;1.90;;;8.70;99.90;;;;;;5010509;28;20493;-79
2023/01/13 08:08:30;;;;;;;5.60;1.43;;;8.70;99.90;;;;;;4990104;28;20423;-78
2023/01/13 08:10:59;;;;;;;7.97;1.87;;;8.70;99.90;;;;;;4996341;28;20761;-79
2023/01/13 08:13:25;;;;;;;4.73;1.30;;;8.80;99.90;;;;;;5009433;28;20222;-79
2023/01/13 08:15:57;;;;;;;6.40;1.57;;;8.70;99.90;;;;;;4991498;28;20418;-79
2023/01/13 08:18:23;;;;;;;8.13;1.33;;;8.90;99.90;;;;;;4984882;28;20186;-79
2023/01/13 08:20:51;;;;;;;5.10;2.40;;;8.80;99.90;;;;;;5003831;28;20418;-78
2023/01/13 08:23:20;;;;;;;5.67;1.40;;;8.70;99.90;;;;;;5000910;28;20214;-79
2023/01/13 08:25:46;;;;;;;6.47;1.73;;;8.90;99.90;;;;;;5009280;28;20476;-78
2023/01/13 08:28:13;;;;;;;5.70;1.50;;;8.90;99.90;;;;;;4991572;28;20923;-78
2023/01/13 08:30:39;;;;;;;6.13;1.20;;;9.00;99.90;;;;;;5009149;28;20421;-78
2023/01/13 08:33:06;;;;;;;6.00;1.97;;;9.10;99.90;;;;;;4991609;28;20477;-79
2023/01/13 08:35:34;;;;;;;4.80;1.40;;;8.80;99.90;;;;;;5009130;28;20199;-79
2023/01/13 08:37:59;;;;;;;8.67;1.80;;;9.00;99.90;;;;;;4990661;28;20458;-79
2023/01/13 08:40:25;;;;;;;4.47;1.53;;;8.70;99.90;;;;;;4984307;28;20457;-78
2023/01/13 08:42:52;;;;;;;10.77;2.17;;;8.90;99.90;;;;;;5006477;28;20234;-78
2023/01/13 08:45:18;;;;;;;7.87;1.50;;;8.90;99.90;;;;;;4991391;28;20175;-78
2023/01/13 08:47:44;;;;;;;7.63;1.90;;;8.70;99.90;;;;;;5009352;28;20453;-78
2023/01/13 08:50:10;;;;;;;7.60;2.73;;;9.00;99.90;;;;;;4991645;28;20183;-79
2023/01/13 08:52:36;;;;;;;6.90;1.90;;;8.90;99.90;;;;;;4991674;28;20218;-77
2023/01/13 08:55:02;;;;;;;3.97;1.33;;;9.00;99.90;;;;;;5003462;28;20990;-78
2023/01/13 08:57:28;;;;;;;6.53;1.97;;;9.00;99.90;;;;;;5009011;28;20460;-79
2023/01/13 08:59:53;;;;;;;5.27;1.60;;;8.90;99.90;;;;;;5009092;28;20418;-79
2023/01/13 09:02:21;;;;;;;7.23;1.97;;;8.70;99.90;;;;;;4967331;28;20199;-79
2023/01/13 09:04:47;;;;;;;9.43;1.70;;;8.80;99.90;;;;;;5009189;28;20404;-79
2023/01/13 09:07:13;;;;;;;6.97;1.60;;;8.90;99.90;;;;;;5008692;28;20422;-79
2023/01/13 09:09:39;;;;;;;5.00;1.63;;;8.90;99.90;;;;;;5009422;28;20954;-78
2023/01/13 09:14:50;;;;;;;7.43;2.40;;;8.70;99.90;;;;;;4993376;28;20206;-78
2023/01/13 09:17:17;;;;;;;6.20;1.97;;;8.80;99.90;;;;;;4993035;28;20434;-79
2023/01/13 09:19:43;;;;;;;6.03;2.17;;;8.80;99.90;;;;;;4993115;28;20486;-79
2023/01/13 09:22:14;;;;;;;9.77;2.47;;;9.00;99.90;;;;;;4993184;28;20529;-79
2023/01/13 09:24:40;;;;;;;11.47;2.20;;;9.00;99.90;;;;;;4970652;28;20437;-79
2023/01/13 09:27:06;;;;;;;5.47;2.20;;;9.00;99.90;;;;;;4992798;28;20422;-79
2023/01/13 09:29:31;;;;;;;9.23;2.00;;;9.00;99.90;;;;;;5001555;28;20180;-79
2023/01/13 09:31:57;;;;;;;6.60;1.40;;;9.10;99.90;;;;;;4993146;28;20780;-79
2023/01/13 09:37:08;;;;;;;7.87;2.50;;;8.80;99.90;;;;;;4992596;28;20544;-79
2023/01/13 09:39:44;;;;;;;7.27;2.63;;;8.90;99.90;;;;;;4992659;28;20900;-78
2023/01/13 09:46:05;;;;;;;7.53;2.40;;;8.90;99.90;;;;;;4990761;28;20411;-79
2023/01/13 09:48:50;;;;;;;7.30;2.10;;;9.00;99.90;;;;;;4986114;28;20773;-79
2023/01/13 09:51:26;;;;;;;6.50;1.80;;;8.90;99.90;;;;;;4992487;28;20439;-79
2023/01/13 09:53:58;;;;;;;8.77;2.07;;;8.90;99.90;;;;;;4987589;28;20509;-79
2023/01/13 09:56:25;;;;;;;9.03;3.07;;;9.00;99.90;;;;;;4992321;28;20414;-78
2023/01/13 09:58:51;;;;;;;10.60;1.80;;;9.20;99.90;;;;;;4992248;28;20404;-79
2023/01/13 10:01:34;;;;;;;9.97;2.70;;;9.20;99.90;;;;;;5006804;28;20945;-78
2023/01/13 10:04:09;;;;;;;8.33;2.97;;;9.10;99.90;;;;;;4992226;28;20411;-78
2023/01/13 10:06:38;;;;;;;7.53;2.27;;;9.20;99.90;;;;;;4985010;28;20821;-78
2023/01/13 10:09:04;;;;;;;10.93;2.77;;;9.10;99.90;;;;;;5007196;28;20419;-79
2023/01/13 10:14:46;;;;;;;10.63;3.10;;;9.20;99.90;;;;;;5011525;28;20514;-78
2023/01/13 10:17:36;;;;;;;9.93;2.90;;;9.00;99.90;;;;;;5000389;28;20422;-78
2023/01/13 10:20:17;;;;;;;11.60;2.87;;;9.00;99.90;;;;;;5011674;28;20842;-78
2023/01/13 10:23:01;;;;;;;11.40;3.10;;;9.10;99.90;;;;;;5026269;28;20504;-79
2023/01/13 10:25:31;;;;;;;5.57;2.23;;;9.10;99.90;;;;;;5011280;28;20783;-77
2023/01/13 10:28:07;;;;;;;17.27;3.10;;;9.20;99.90;;;;;;5011319;28;20418;-77
2023/01/13 10:30:38;;;;;;;11.00;3.23;;;9.20;99.90;;;;;;5011235;28;20927;-78
2023/01/13 10:33:16;;;;;;;10.10;2.40;;;9.10;99.90;;;;;;5011698;28;21037;-78
2023/01/13 10:36:00;;;;;;;7.17;2.23;;;9.40;99.90;;;;;;5011027;28;20651;-79
2023/01/13 10:38:35;;;;;;;9.77;2.60;;;9.40;99.90;;;;;;4993473;28;20421;-78
2023/01/13 10:41:04;;;;;;;8.07;2.60;;;9.20;99.90;;;;;;4993517;28;20785;-78
2023/01/13 10:43:30;;;;;;;13.80;3.13;;;9.30;99.90;;;;;;5009807;28;21013;-78
2023/01/13 10:46:02;;;;;;;11.63;3.60;;;9.20;99.90;;;;;;5010857;28;20508;-79
2023/01/13 10:48:55;;;;;;;14.73;3.40;;;9.30;99.90;;;;;;5010781;28;20705;-78
2023/01/13 10:51:28;;;;;;;10.20;2.43;;;9.60;99.90;;;;;;4993284;28;20421;-78
2023/01/13 10:53:58;;;;;;;8.13;2.80;;;9.60;99.90;;;;;;5010834;28;20509;-79
2023/01/13 10:56:27;;;;;;;13.33;3.00;;;9.60;99.90;;;;;;4993015;28;20430;-78
2023/01/13 10:59:10;;;;;;;15.00;2.40;;;9.50;99.90;;;;;;5010567;28;20406;-78
2023/01/13 11:01:36;;;;;;;12.80;2.93;;;9.80;99.90;;;;;;5010581;28;20426;-79
2023/01/13 11:04:32;;;;;;;10.53;2.53;;;10.00;99.90;;;;;;5010853;28;20421;-78
2023/01/13 11:06:59;;;;;;;8.57;2.30;;;10.00;99.90;;;;;;5010223;28;20485;-78
2023/01/13 11:09:26;;;;;;;6.87;3.10;;;10.10;99.90;;;;;;5010740;28;20414;-78
2023/01/13 11:11:55;;;;;;;11.60;2.97;;;10.10;99.90;;;;;;4994264;28;20462;-79
2023/01/13 11:14:41;;;;;;;8.10;2.00;;;10.10;99.90;;;;;;4990991;28;20505;-78
2023/01/13 11:17:22;;;;;;;9.80;2.93;;;10.00;99.90;;;;;;4990959;28;20415;-78
2023/01/13 11:19:58;;;;;;;10.33;2.23;;;10.00;99.90;;;;;;4990758;28;20821;-78
2023/01/13 11:22:30;;;;;;;7.47;2.57;;;9.90;99.90;;;;;;4990758;28;20524;-78
2023/01/13 11:25:02;;;;;;;10.90;2.90;;;9.90;99.90;;;;;;4957087;28;20419;-78
2023/01/13 11:27:52;;;;;;;8.13;2.50;;;9.90;99.90;;;;;;4990949;28;20461;-78
2023/01/13 11:30:28;;;;;;;6.80;2.10;;;9.80;99.90;;;;;;4973093;28;20924;-78
2023/01/13 11:33:03;;;;;;;8.10;2.10;;;9.70;99.90;;;;;;4990580;28;20470;-78
2023/01/13 11:35:33;;;;;;;7.63;2.30;;;9.60;99.90;;;;;;4989505;28;20418;-78
2023/01/13 11:38:09;;;;;;;7.87;2.30;;;9.50;99.90;;;;;;4990465;28;20419;-78
2023/01/13 11:40:47;;;;;;;6.10;2.60;;;9.40;99.90;;;;;;4990399;28;20418;-78
2023/01/13 11:43:35;;;;;;;10.43;2.97;;;9.30;99.90;;;;;;4990158;28;20446;-78
2023/01/13 11:46:01;;;;;;;12.50;2.83;;;9.30;99.90;;;;;;4990016;28;20447;-78
2023/01/13 11:48:31;;;;;;;9.70;2.43;;;9.30;99.90;;;;;;4990141;28;20451;-79
2023/01/13 11:51:22;;;;;;;10.83;3.00;;;9.30;99.90;;;;;;4972730;28;20194;-78
2023/01/13 11:57:49;;;;;;;12.20;3.00;;;9.30;99.90;;;;;;4962655;28;20421;-78
2023/01/13 12:00:27;;;;;;;9.73;2.60;;;9.30;99.90;;;;;;4972565;28;20757;-78
2023/01/13 12:03:04;;;;;;;6.20;2.50;;;9.20;99.90;;;;;;4990182;28;20435;-78
2023/01/13 12:05:50;;;;;;;10.47;2.60;;;9.40;99.90;;;;;;4972447;28;20406;-79
2023/01/13 12:08:24;;;;;;;9.07;2.33;;;9.30;99.90;;;;;;4990025;28;20760;-78
2023/01/13 12:11:19;;;;;;;17.20;3.37;;;9.30;99.90;;;;;;4980275;28;20434;-79
2023/01/13 12:14:00;;;;;;;3.80;1.80;;;9.10;99.90;;;;;;4948474;29;20511;-78
2023/01/13 12:16:29;;;;;;;8.40;2.77;;;9.20;99.90;;;;;;4990072;28;20436;-78
2023/01/13 12:19:17;;;;;;;9.77;2.83;;;9.10;99.90;;;;;;5009556;28;20480;-78
2023/01/13 12:29:25;;;;;;;9.17;2.80;;;9.10;99.90;;;;;;4948529;29;20770;-79
2023/01/13 12:31:51;;;;;;;7.70;1.97;;;9.00;99.90;;;;;;4946370;29;20484;-78
2023/01/13 12:34:42;;;;;;;7.40;2.33;;;9.10;99.90;;;;;;5000926;28;20841;-78
2023/01/13 12:37:12;;;;;;;10.40;2.93;;;9.00;99.90;;;;;;4991373;28;20783;-78
2023/01/13 12:40:24;;;;;;;11.20;3.27;;;9.00;99.90;;;;;;5009607;28;20737;-78
2023/01/13 12:50:30;;;;;;;8.00;2.17;;;8.90;99.90;;;;;;5011394;28;20426;-77
2023/01/13 12:53:34;;;;;;;10.70;2.53;;;8.80;99.90;;;;;;5012977;28;20880;-78
2023/01/13 12:56:41;;;;;;;6.90;1.77;;;8.90;99.90;;;;;;5012918;28;21001;-78
2023/01/13 12:59:18;;;;;;;5.40;1.93;;;8.80;99.90;;;;;;5012773;28;20837;-78
2023/01/13 13:02:10;;;;;;;3.47;1.90;;;8.80;99.90;;;;;;5013042;28;20452;-77
2023/01/13 13:05:31;;;;;;;5.30;2.20;;;8.70;99.90;;;;;;5013273;28;21256;-77
2023/01/13 13:08:45;;;;;;;4.50;1.60;;;8.80;99.90;;;;;;5012742;28;20842;-78
2023/01/13 13:19:28;;;;;;;5.10;1.70;;;9.10;99.90;;;;;;4836953;29;20451;-78
2023/01/13 13:22:55;;;;;;;4.80;1.57;;;9.10;99.90;;;;;;4972554;28;21087;-78
2023/01/13 13:25:23;;;;;;;7.10;2.10;;;9.00;99.90;;;;;;4932193;29;20946;-78
2023/01/13 13:28:07;;;;;;;3.70;1.43;;;8.90;99.90;;;;;;4900667;29;20473;-79
2023/01/13 13:30:37;;;;;;;6.07;1.83;;;8.90;99.90;;;;;;4979136;28;20974;-78
2023/01/13 13:33:30;;;;;;;5.77;1.90;;;8.90;99.90;;;;;;4992902;28;21420;-78
2023/01/13 13:37:26;;;;;;;7.23;1.93;;;8.90;99.90;;;;;;4992780;28;20443;-77
2023/01/13 13:48:29;;;;;;;8.70;2.33;;;8.70;99.90;;;;;;4992682;28;20418;-78
2023/01/13 13:51:19;;;;;;;5.53;2.03;;;8.80;99.90;;;;;;4974947;28;20411;-78
2023/01/13 13:53:44;;;;;;;7.83;2.57;;;8.80;99.90;;;;;;4992248;28;20466;-79
2023/01/13 13:57:05;;;;;;;11.27;2.23;;;8.80;99.90;;;;;;4992227;28;20411;-78
2023/01/13 13:59:33;;;;;;;5.73;1.90;;;8.80;99.90;;;;;;4921576;29;20190;-79
2023/01/13 14:02:02;;;;;;;7.67;2.93;;;8.90;99.90;;;;;;4949539;28;20541;-78
2023/01/13 14:04:35;;;;;;;6.80;2.00;;;9.00;99.90;;;;;;4992398;28;20824;-79
2023/01/13 14:07:21;;;;;;;4.87;2.73;;;8.90;99.90;;;;;;4991941;28;20419;-78
2023/01/13 14:09:53;;;;;;;6.50;2.20;;;9.10;99.90;;;;;;4991641;28;20430;-79
2023/01/13 14:12:37;;;;;;;6.43;2.70;;;8.80;99.90;;;;;;4974566;28;20553;-79
2023/01/13 14:35:16;;;;;;;11.40;2.67;;;8.80;99.90;;;;;;4990893;28;20415;-78
2023/01/13 14:37:42;;;;;;;7.30;3.07;;;8.90;99.90;;;;;;4991441;28;20414;-78
2023/01/13 14:40:35;;;;;;;9.37;2.90;;;8.90;99.90;;;;;;4991405;28;20415;-79
2023/01/13 14:43:02;;;;;;;9.77;2.70;;;8.70;99.90;;;;;;4974038;28;20453;-78
2023/01/13 14:45:31;;;;;;;8.67;3.50;;;8.60;99.90;;;;;;4991264;28;20419;-78
2023/01/13 14:48:00;;;;;;;8.73;2.63;;;8.60;99.90;;;;;;4991201;28;21006;-78
2023/01/13 14:53:52;;;;;;;14.87;3.17;;;8.60;99.90;;;;;;4976007;28;21070;-78
2023/01/13 14:56:48;;;;;;;10.30;2.93;;;8.60;99.90;;;;;;4989750;28;20426;-78
2023/01/13 14:59:32;;;;;;;10.10;3.20;;;8.70;99.90;;;;;;4991655;28;20437;-78
2023/01/13 15:01:58;;;;;;;5.90;3.23;;;8.70;99.90;;;;;;4957626;28;20442;-79
2023/01/13 15:04:26;;;;;;;6.87;2.97;;;8.70;99.90;;;;;;4991055;28;20518;-78